sensor_id;sensor_type;location;lat;lon;timestamp;P1;durP1;ratioP1;P2;durP2;ratioP2
18653;SDS011;9456;47.824;16.228;2023-09-12T00:02:10;7.80;;;6.80;;
18653;SDS011;9456;47.824;16.228;2023-09-12T00:04:39;9.63;;;6.63;;
18653;SDS011;9456;47.824;16.228;2023-09-12T00:07:08;7.30;;;6.60;;
18653;SDS011;9456;47.824;16.228;2023-09-12T00:09:36;7.33;;;6.63;;
18653;SDS011;9456;47.824;16.228;2023-09-12T00:12:06;8.07;;;7.27;;
18653;SDS011;9456;47.824;16.228;2023-09-12T00:14:35;9.13;;;7.00;;
18653;SDS011;9456;47.824;16.228;2023-09-12T00:17:04;7.43;;;6.73;;
18653;SDS011;9456;47.824;16.228;2023-09-12T00:19:33;7.50;;;6.50;;
18653;SDS011;9456;47.824;16.228;2023-09-12T00:22:02;7.90;;;7.00;;
18653;SDS011;9456;47.824;16.228;2023-09-12T00:27:19;7.20;;;6.60;;
18653;SDS011;9456;47.824;16.228;2023-09-12T00:29:48;6.90;;;6.13;;
18653;SDS011;9456;47.824;16.228;2023-09-12T00:32:17;8.60;;;7.10;;
18653;SDS011;9456;47.824;16.228;2023-09-12T00:34:46;7.63;;;6.87;;
18653;SDS011;9456;47.824;16.228;2023-09-12T00:37:15;8.50;;;6.73;;
18653;SDS011;9456;47.824;16.228;2023-09-12T00:39:44;7.10;;;6.40;;
18653;SDS011;9456;47.824;16.228;2023-09-12T00:42:12;7.97;;;6.93;;
18653;SDS011;9456;47.824;16.228;2023-09-12T00:44:41;7.13;;;6.53;;
18653;SDS011;9456;47.824;16.228;2023-09-12T00:47:10;6.87;;;6.33;;
18653;SDS011;9456;47.824;16.228;2023-09-12T00:49:39;7.50;;;6.67;;
18653;SDS011;9456;47.824;16.228;2023-09-12T00:52:08;6.83;;;6.33;;
18653;SDS011;9456;47.824;16.228;2023-09-12T00:54:37;6.97;;;6.47;;
18653;SDS011;9456;47.824;16.228;2023-09-12T00:57:06;6.30;;;5.80;;
18653;SDS011;9456;47.824;16.228;2023-09-12T00:59:35;6.80;;;6.07;;
18653;SDS011;9456;47.824;16.228;2023-09-12T01:02:04;7.00;;;6.40;;
18653;SDS011;9456;47.824;16.228;2023-09-12T01:04:33;8.00;;;6.57;;
18653;SDS011;9456;47.824;16.228;2023-09-12T01:07:03;9.10;;;6.60;;
18653;SDS011;9456;47.824;16.228;2023-09-12T01:09:32;6.97;;;6.40;;
18653;SDS011;9456;47.824;16.228;2023-09-12T01:12:01;7.43;;;6.73;;
18653;SDS011;9456;47.824;16.228;2023-09-12T01:14:30;7.20;;;6.60;;
18653;SDS011;9456;47.824;16.228;2023-09-12T01:16:59;7.20;;;6.53;;
18653;SDS011;9456;47.824;16.228;2023-09-12T01:19:28;7.40;;;6.80;;
18653;SDS011;9456;47.824;16.228;2023-09-12T01:22:10;6.97;;;6.37;;
18653;SDS011;9456;47.824;16.228;2023-09-12T01:24:52;7.43;;;6.63;;
18653;SDS011;9456;47.824;16.228;2023-09-12T01:27:27;9.03;;;7.20;;
18653;SDS011;9456;47.824;16.228;2023-09-12T01:29:57;7.50;;;6.80;;
18653;SDS011;9456;47.824;16.228;2023-09-12T01:32:26;7.63;;;6.83;;
18653;SDS011;9456;47.824;16.228;2023-09-12T01:34:55;7.60;;;6.80;;
18653;SDS011;9456;47.824;16.228;2023-09-12T01:37:24;7.40;;;6.90;;
18653;SDS011;9456;47.824;16.228;2023-09-12T01:39:53;11.53;;;8.00;;
18653;SDS011;9456;47.824;16.228;2023-09-12T01:42:21;7.77;;;7.17;;
18653;SDS011;9456;47.824;16.228;2023-09-12T01:44:51;7.70;;;7.10;;
18653;SDS011;9456;47.824;16.228;2023-09-12T01:47:19;7.80;;;7.20;;
18653;SDS011;9456;47.824;16.228;2023-09-12T01:49:49;7.37;;;6.73;;
18653;SDS011;9456;47.824;16.228;2023-09-12T01:52:17;7.97;;;7.17;;
18653;SDS011;9456;47.824;16.228;2023-09-12T01:54:46;7.83;;;7.23;;
18653;SDS011;9456;47.824;16.228;2023-09-12T01:57:15;8.10;;;7.50;;
18653;SDS011;9456;47.824;16.228;2023-09-12T01:59:44;7.53;;;6.90;;
18653;SDS011;9456;47.824;16.228;2023-09-12T02:02:13;8.20;;;7.50;;
18653;SDS011;9456;47.824;16.228;2023-09-12T02:04:43;8.67;;;7.60;;
18653;SDS011;9456;47.824;16.228;2023-09-12T02:07:13;8.37;;;7.60;;
18653;SDS011;9456;47.824;16.228;2023-09-12T02:09:42;8.23;;;7.53;;
18653;SDS011;9456;47.824;16.228;2023-09-12T02:12:11;9.23;;;7.33;;
18653;SDS011;9456;47.824;16.228;2023-09-12T02:14:40;7.37;;;6.80;;
18653;SDS011;9456;47.824;16.228;2023-09-12T02:17:09;7.90;;;7.20;;
18653;SDS011;9456;47.824;16.228;2023-09-12T02:19:38;7.27;;;6.67;;
18653;SDS011;9456;47.824;16.228;2023-09-12T02:22:07;7.83;;;7.33;;
18653;SDS011;9456;47.824;16.228;2023-09-12T02:24:42;10.33;;;7.40;;
18653;SDS011;9456;47.824;16.228;2023-09-12T02:27:11;7.87;;;7.17;;
18653;SDS011;9456;47.824;16.228;2023-09-12T02:29:40;9.13;;;7.57;;
18653;SDS011;9456;47.824;16.228;2023-09-12T02:32:09;7.40;;;6.70;;
18653;SDS011;9456;47.824;16.228;2023-09-12T02:34:37;7.93;;;7.13;;
18653;SDS011;9456;47.824;16.228;2023-09-12T02:37:06;9.67;;;7.63;;
18653;SDS011;9456;47.824;16.228;2023-09-12T02:39:35;8.40;;;7.57;;
18653;SDS011;9456;47.824;16.228;2023-09-12T02:42:04;8.27;;;6.53;;
18653;SDS011;9456;47.824;16.228;2023-09-12T02:44:33;7.60;;;7.00;;
18653;SDS011;9456;47.824;16.228;2023-09-12T02:47:02;7.83;;;7.13;;
18653;SDS011;9456;47.824;16.228;2023-09-12T02:49:32;7.80;;;6.90;;
18653;SDS011;9456;47.824;16.228;2023-09-12T02:52:01;7.20;;;6.60;;
18653;SDS011;9456;47.824;16.228;2023-09-12T02:54:30;7.27;;;6.57;;
18653;SDS011;9456;47.824;16.228;2023-09-12T02:56:59;7.43;;;6.83;;
18653;SDS011;9456;47.824;16.228;2023-09-12T02:59:28;7.13;;;6.50;;
18653;SDS011;9456;47.824;16.228;2023-09-12T03:01:58;8.03;;;7.43;;
18653;SDS011;9456;47.824;16.228;2023-09-12T03:04:27;7.93;;;7.33;;
18653;SDS011;9456;47.824;16.228;2023-09-12T03:06:56;8.37;;;7.50;;
18653;SDS011;9456;47.824;16.228;2023-09-12T03:09:25;8.17;;;7.53;;
18653;SDS011;9456;47.824;16.228;2023-09-12T03:11:54;7.83;;;7.23;;
18653;SDS011;9456;47.824;16.228;2023-09-12T03:14:23;8.30;;;7.70;;
18653;SDS011;9456;47.824;16.228;2023-09-12T03:16:52;8.37;;;7.77;;
18653;SDS011;9456;47.824;16.228;2023-09-12T03:19:21;8.70;;;7.80;;
18653;SDS011;9456;47.824;16.228;2023-09-12T03:21:50;8.27;;;7.53;;
18653;SDS011;9456;47.824;16.228;2023-09-12T03:24:18;8.07;;;7.33;;
18653;SDS011;9456;47.824;16.228;2023-09-12T03:26:48;8.67;;;7.83;;
18653;SDS011;9456;47.824;16.228;2023-09-12T03:29:17;8.10;;;7.50;;
18653;SDS011;9456;47.824;16.228;2023-09-12T03:31:46;8.20;;;7.50;;
18653;SDS011;9456;47.824;16.228;2023-09-12T03:34:15;8.30;;;7.60;;
18653;SDS011;9456;47.824;16.228;2023-09-12T03:36:44;8.30;;;7.60;;
18653;SDS011;9456;47.824;16.228;2023-09-12T03:39:13;8.70;;;8.00;;
18653;SDS011;9456;47.824;16.228;2023-09-12T03:41:42;7.87;;;7.20;;
18653;SDS011;9456;47.824;16.228;2023-09-12T03:44:11;8.03;;;7.27;;
18653;SDS011;9456;47.824;16.228;2023-09-12T03:46:40;8.70;;;8.00;;
18653;SDS011;9456;47.824;16.228;2023-09-12T03:49:09;9.00;;;8.30;;
18653;SDS011;9456;47.824;16.228;2023-09-12T03:51:37;8.80;;;7.93;;
18653;SDS011;9456;47.824;16.228;2023-09-12T03:54:07;8.70;;;7.90;;
18653;SDS011;9456;47.824;16.228;2023-09-12T03:56:35;8.73;;;7.83;;
18653;SDS011;9456;47.824;16.228;2023-09-12T03:59:04;9.37;;;8.67;;
18653;SDS011;9456;47.824;16.228;2023-09-12T04:01:33;8.47;;;7.73;;
18653;SDS011;9456;47.824;16.228;2023-09-12T04:04:02;9.27;;;8.47;;
18653;SDS011;9456;47.824;16.228;2023-09-12T04:06:31;10.27;;;8.10;;
18653;SDS011;9456;47.824;16.228;2023-09-12T04:09:00;8.97;;;8.27;;
18653;SDS011;9456;47.824;16.228;2023-09-12T04:11:30;9.83;;;8.20;;
18653;SDS011;9456;47.824;16.228;2023-09-12T04:13:59;9.00;;;8.20;;
18653;SDS011;9456;47.824;16.228;2023-09-12T04:16:28;8.97;;;8.03;;
18653;SDS011;9456;47.824;16.228;2023-09-12T04:18:56;8.77;;;8.00;;
18653;SDS011;9456;47.824;16.228;2023-09-12T04:21:25;8.90;;;8.20;;
18653;SDS011;9456;47.824;16.228;2023-09-12T04:23:54;8.93;;;8.23;;
18653;SDS011;9456;47.824;16.228;2023-09-12T04:26:23;9.23;;;8.33;;
18653;SDS011;9456;47.824;16.228;2023-09-12T04:28:53;8.90;;;8.03;;
18653;SDS011;9456;47.824;16.228;2023-09-12T04:31:22;8.70;;;7.80;;
18653;SDS011;9456;47.824;16.228;2023-09-12T04:33:52;10.80;;;8.17;;
18653;SDS011;9456;47.824;16.228;2023-09-12T04:36:21;9.53;;;8.33;;
18653;SDS011;9456;47.824;16.228;2023-09-12T04:38:49;9.17;;;8.37;;
18653;SDS011;9456;47.824;16.228;2023-09-12T04:41:18;10.40;;;7.97;;
18653;SDS011;9456;47.824;16.228;2023-09-12T04:43:47;8.50;;;7.83;;
18653;SDS011;9456;47.824;16.228;2023-09-12T04:46:16;8.83;;;8.03;;
18653;SDS011;9456;47.824;16.228;2023-09-12T04:48:45;9.40;;;8.40;;
18653;SDS011;9456;47.824;16.228;2023-09-12T04:51:14;8.57;;;7.83;;
18653;SDS011;9456;47.824;16.228;2023-09-12T04:53:43;9.93;;;8.43;;
18653;SDS011;9456;47.824;16.228;2023-09-12T04:56:12;8.73;;;7.83;;
18653;SDS011;9456;47.824;16.228;2023-09-12T04:58:41;10.77;;;8.90;;
18653;SDS011;9456;47.824;16.228;2023-09-12T05:01:10;12.10;;;8.10;;
18653;SDS011;9456;47.824;16.228;2023-09-12T05:03:39;8.13;;;7.47;;
18653;SDS011;9456;47.824;16.228;2023-09-12T05:06:08;9.80;;;8.90;;
18653;SDS011;9456;47.824;16.228;2023-09-12T05:08:37;9.43;;;7.97;;
18653;SDS011;9456;47.824;16.228;2023-09-12T05:11:06;8.80;;;8.00;;
18653;SDS011;9456;47.824;16.228;2023-09-12T05:13:35;9.07;;;8.17;;
18653;SDS011;9456;47.824;16.228;2023-09-12T05:16:04;8.50;;;7.70;;
18653;SDS011;9456;47.824;16.228;2023-09-12T05:18:33;9.47;;;8.53;;
18653;SDS011;9456;47.824;16.228;2023-09-12T05:21:02;8.17;;;7.30;;
18653;SDS011;9456;47.824;16.228;2023-09-12T05:23:31;9.73;;;7.83;;
18653;SDS011;9456;47.824;16.228;2023-09-12T05:26:00;8.47;;;7.43;;
18653;SDS011;9456;47.824;16.228;2023-09-12T05:28:29;8.37;;;7.57;;
18653;SDS011;9456;47.824;16.228;2023-09-12T05:30:58;10.37;;;7.40;;
18653;SDS011;9456;47.824;16.228;2023-09-12T05:33:27;7.90;;;7.10;;
18653;SDS011;9456;47.824;16.228;2023-09-12T05:35:56;8.70;;;7.80;;
18653;SDS011;9456;47.824;16.228;2023-09-12T05:38:25;9.80;;;7.73;;
18653;SDS011;9456;47.824;16.228;2023-09-12T05:40:54;7.47;;;6.77;;
18653;SDS011;9456;47.824;16.228;2023-09-12T05:43:23;7.97;;;6.97;;
18653;SDS011;9456;47.824;16.228;2023-09-12T05:45:52;9.33;;;7.57;;
18653;SDS011;9456;47.824;16.228;2023-09-12T05:48:21;7.97;;;7.17;;
18653;SDS011;9456;47.824;16.228;2023-09-12T05:50:50;12.97;;;7.77;;
18653;SDS011;9456;47.824;16.228;2023-09-12T05:53:19;8.87;;;7.50;;
18653;SDS011;9456;47.824;16.228;2023-09-12T05:55:48;8.10;;;6.63;;
18653;SDS011;9456;47.824;16.228;2023-09-12T05:58:17;11.80;;;7.50;;
18653;SDS011;9456;47.824;16.228;2023-09-12T06:00:46;8.13;;;6.83;;
18653;SDS011;9456;47.824;16.228;2023-09-12T06:03:15;11.30;;;8.30;;
18653;SDS011;9456;47.824;16.228;2023-09-12T06:05:44;11.60;;;7.60;;
18653;SDS011;9456;47.824;16.228;2023-09-12T06:08:13;10.70;;;7.50;;
18653;SDS011;9456;47.824;16.228;2023-09-12T06:10:42;8.87;;;7.50;;
18653;SDS011;9456;47.824;16.228;2023-09-12T06:13:11;7.67;;;6.73;;
18653;SDS011;9456;47.824;16.228;2023-09-12T06:15:40;8.93;;;7.17;;
18653;SDS011;9456;47.824;16.228;2023-09-12T06:18:09;8.60;;;7.70;;
18653;SDS011;9456;47.824;16.228;2023-09-12T06:20:38;9.17;;;7.13;;
18653;SDS011;9456;47.824;16.228;2023-09-12T06:23:07;12.23;;;7.77;;
18653;SDS011;9456;47.824;16.228;2023-09-12T06:25:36;11.17;;;7.77;;
18653;SDS011;9456;47.824;16.228;2023-09-12T06:28:08;9.67;;;8.03;;
18653;SDS011;9456;47.824;16.228;2023-09-12T06:30:35;10.97;;;7.83;;
18653;SDS011;9456;47.824;16.228;2023-09-12T06:33:05;9.37;;;7.80;;
18653;SDS011;9456;47.824;16.228;2023-09-12T06:35:34;10.70;;;7.77;;
18653;SDS011;9456;47.824;16.228;2023-09-12T06:38:03;8.23;;;7.47;;
18653;SDS011;9456;47.824;16.228;2023-09-12T06:40:32;9.13;;;6.80;;
18653;SDS011;9456;47.824;16.228;2023-09-12T06:43:01;15.20;;;6.80;;
18653;SDS011;9456;47.824;16.228;2023-09-12T06:45:30;12.93;;;6.83;;
18653;SDS011;9456;47.824;16.228;2023-09-12T06:47:59;7.87;;;6.57;;
18653;SDS011;9456;47.824;16.228;2023-09-12T06:50:28;6.93;;;6.33;;
18653;SDS011;9456;47.824;16.228;2023-09-12T06:52:57;10.70;;;7.00;;
18653;SDS011;9456;47.824;16.228;2023-09-12T06:55:27;12.00;;;6.60;;
18653;SDS011;9456;47.824;16.228;2023-09-12T06:57:55;9.20;;;6.10;;
18653;SDS011;9456;47.824;16.228;2023-09-12T07:00:24;8.70;;;6.07;;
18653;SDS011;9456;47.824;16.228;2023-09-12T07:02:53;8.70;;;6.53;;
18653;SDS011;9456;47.824;16.228;2023-09-12T07:05:22;11.57;;;7.03;;
18653;SDS011;9456;47.824;16.228;2023-09-12T07:07:52;7.93;;;6.40;;
18653;SDS011;9456;47.824;16.228;2023-09-12T07:10:20;11.00;;;6.17;;
18653;SDS011;9456;47.824;16.228;2023-09-12T07:12:49;12.83;;;5.80;;
18653;SDS011;9456;47.824;16.228;2023-09-12T07:15:18;9.47;;;6.60;;
18653;SDS011;9456;47.824;16.228;2023-09-12T07:17:46;7.27;;;5.63;;
18653;SDS011;9456;47.824;16.228;2023-09-12T07:20:15;7.30;;;6.57;;
18653;SDS011;9456;47.824;16.228;2023-09-12T07:22:44;6.47;;;5.77;;
18653;SDS011;9456;47.824;16.228;2023-09-12T07:25:14;11.77;;;6.93;;
18653;SDS011;9456;47.824;16.228;2023-09-12T07:27:43;8.40;;;5.43;;
18653;SDS011;9456;47.824;16.228;2023-09-12T07:30:12;10.23;;;5.50;;
18653;SDS011;9456;47.824;16.228;2023-09-12T07:32:41;9.37;;;5.80;;
18653;SDS011;9456;47.824;16.228;2023-09-12T07:35:10;10.13;;;5.77;;
18653;SDS011;9456;47.824;16.228;2023-09-12T07:37:39;12.40;;;5.47;;
18653;SDS011;9456;47.824;16.228;2023-09-12T07:40:09;6.70;;;5.60;;
18653;SDS011;9456;47.824;16.228;2023-09-12T07:42:39;5.73;;;5.23;;
18653;SDS011;9456;47.824;16.228;2023-09-12T07:45:08;9.20;;;5.83;;
18653;SDS011;9456;47.824;16.228;2023-09-12T07:47:41;10.40;;;6.70;;
18653;SDS011;9456;47.824;16.228;2023-09-12T07:50:10;6.40;;;5.80;;
18653;SDS011;9456;47.824;16.228;2023-09-12T07:52:39;13.37;;;6.57;;
18653;SDS011;9456;47.824;16.228;2023-09-12T07:55:09;8.67;;;6.40;;
18653;SDS011;9456;47.824;16.228;2023-09-12T07:57:38;8.03;;;5.93;;
18653;SDS011;9456;47.824;16.228;2023-09-12T08:00:08;10.07;;;5.93;;
18653;SDS011;9456;47.824;16.228;2023-09-12T08:02:37;6.23;;;5.63;;
18653;SDS011;9456;47.824;16.228;2023-09-12T08:05:07;9.60;;;6.50;;
18653;SDS011;9456;47.824;16.228;2023-09-12T08:07:36;10.10;;;6.13;;
18653;SDS011;9456;47.824;16.228;2023-09-12T08:10:06;10.37;;;5.80;;
18653;SDS011;9456;47.824;16.228;2023-09-12T08:12:35;8.80;;;5.73;;
18653;SDS011;9456;47.824;16.228;2023-09-12T08:15:06;9.43;;;6.23;;
18653;SDS011;9456;47.824;16.228;2023-09-12T08:17:37;7.47;;;6.23;;
18653;SDS011;9456;47.824;16.228;2023-09-12T08:20:07;6.80;;;5.43;;
18653;SDS011;9456;47.824;16.228;2023-09-12T08:22:37;10.23;;;5.00;;
18653;SDS011;9456;47.824;16.228;2023-09-12T08:25:06;6.83;;;4.73;;
18653;SDS011;9456;47.824;16.228;2023-09-12T08:27:35;7.73;;;5.80;;
18653;SDS011;9456;47.824;16.228;2023-09-12T08:30:05;5.93;;;5.13;;
18653;SDS011;9456;47.824;16.228;2023-09-12T08:32:35;7.60;;;5.40;;
18653;SDS011;9456;47.824;16.228;2023-09-12T08:35:05;5.90;;;5.40;;
18653;SDS011;9456;47.824;16.228;2023-09-12T08:37:36;5.10;;;4.40;;
18653;SDS011;9456;47.824;16.228;2023-09-12T08:40:06;6.27;;;5.13;;
18653;SDS011;9456;47.824;16.228;2023-09-12T08:42:37;5.30;;;4.80;;
18653;SDS011;9456;47.824;16.228;2023-09-12T08:45:11;6.33;;;4.10;;
18653;SDS011;9456;47.824;16.228;2023-09-12T08:47:40;9.07;;;4.87;;
18653;SDS011;9456;47.824;16.228;2023-09-12T08:50:09;5.57;;;4.47;;
18653;SDS011;9456;47.824;16.228;2023-09-12T08:52:39;4.30;;;4.00;;
18653;SDS011;9456;47.824;16.228;2023-09-12T08:55:09;6.70;;;4.63;;
18653;SDS011;9456;47.824;16.228;2023-09-12T08:57:38;6.47;;;4.60;;
18653;SDS011;9456;47.824;16.228;2023-09-12T09:00:08;7.23;;;4.90;;
18653;SDS011;9456;47.824;16.228;2023-09-12T09:02:37;5.87;;;4.63;;
18653;SDS011;9456;47.824;16.228;2023-09-12T09:05:07;12.20;;;4.67;;
18653;SDS011;9456;47.824;16.228;2023-09-12T09:07:36;6.57;;;4.53;;
18653;SDS011;9456;47.824;16.228;2023-09-12T09:10:14;7.37;;;4.57;;
18653;SDS011;9456;47.824;16.228;2023-09-12T09:12:35;8.93;;;5.07;;
18653;SDS011;9456;47.824;16.228;2023-09-12T09:15:24;9.63;;;4.70;;
18653;SDS011;9456;47.824;16.228;2023-09-12T09:17:52;11.25;;;5.15;;
18653;SDS011;9456;47.824;16.228;2023-09-12T09:20:26;6.30;;;5.30;;
18653;SDS011;9456;47.824;16.228;2023-09-12T09:22:59;5.90;;;5.30;;
18653;SDS011;9456;47.824;16.228;2023-09-12T09:30:41;5.40;;;4.50;;
18653;SDS011;9456;47.824;16.228;2023-09-12T09:38:06;6.70;;;5.00;;
18653;SDS011;9456;47.824;16.228;2023-09-12T09:43:13;6.10;;;4.83;;
18653;SDS011;9456;47.824;16.228;2023-09-12T09:45:45;4.95;;;4.45;;
18653;SDS011;9456;47.824;16.228;2023-09-12T09:48:18;5.00;;;4.60;;
18653;SDS011;9456;47.824;16.228;2023-09-12T09:50:47;5.00;;;4.60;;
18653;SDS011;9456;47.824;16.228;2023-09-12T09:53:16;6.60;;;4.50;;
18653;SDS011;9456;47.824;16.228;2023-09-12T09:55:45;4.40;;;4.00;;
18653;SDS011;9456;47.824;16.228;2023-09-12T10:00:44;7.65;;;4.85;;
18653;SDS011;9456;47.824;16.228;2023-09-12T10:05:40;5.10;;;4.60;;
18653;SDS011;9456;47.824;16.228;2023-09-12T10:08:09;5.30;;;4.80;;
18653;SDS011;9456;47.824;16.228;2023-09-12T10:10:38;5.55;;;4.75;;
18653;SDS011;9456;47.824;16.228;2023-09-12T10:13:07;5.30;;;4.60;;
18653;SDS011;9456;47.824;16.228;2023-09-12T10:15:36;4.60;;;4.20;;
18653;SDS011;9456;47.824;16.228;2023-09-12T10:20:35;6.00;;;4.70;;
18653;SDS011;9456;47.824;16.228;2023-09-12T10:23:05;4.73;;;4.43;;
18653;SDS011;9456;47.824;16.228;2023-09-12T10:25:34;5.10;;;4.60;;
18653;SDS011;9456;47.824;16.228;2023-09-12T10:28:04;4.47;;;4.13;;
18653;SDS011;9456;47.824;16.228;2023-09-12T10:30:33;5.10;;;4.30;;
18653;SDS011;9456;47.824;16.228;2023-09-12T10:35:30;5.55;;;4.10;;
18653;SDS011;9456;47.824;16.228;2023-09-12T10:38:01;4.50;;;4.20;;
18653;SDS011;9456;47.824;16.228;2023-09-12T10:40:31;5.80;;;4.00;;
18653;SDS011;9456;47.824;16.228;2023-09-12T10:45:43;4.90;;;4.40;;
18653;SDS011;9456;47.824;16.228;2023-09-12T10:48:12;5.10;;;4.10;;
18653;SDS011;9456;47.824;16.228;2023-09-12T10:50:41;5.10;;;4.60;;
18653;SDS011;9456;47.824;16.228;2023-09-12T10:53:11;6.00;;;4.00;;
18653;SDS011;9456;47.824;16.228;2023-09-12T10:55:40;4.40;;;4.00;;
18653;SDS011;9456;47.824;16.228;2023-09-12T11:05:58;5.10;;;3.90;;
18653;SDS011;9456;47.824;16.228;2023-09-12T11:08:28;5.00;;;4.60;;
18653;SDS011;9456;47.824;16.228;2023-09-12T11:14:03;4.40;;;4.00;;
18653;SDS011;9456;47.824;16.228;2023-09-12T11:16:32;4.90;;;4.40;;
18653;SDS011;9456;47.824;16.228;2023-09-12T11:19:14;5.65;;;4.60;;
18653;SDS011;9456;47.824;16.228;2023-09-12T11:21:44;4.80;;;4.30;;
18653;SDS011;9456;47.824;16.228;2023-09-12T11:24:13;4.60;;;4.30;;
18653;SDS011;9456;47.824;16.228;2023-09-12T11:26:57;4.83;;;4.40;;
18653;SDS011;9456;47.824;16.228;2023-09-12T11:29:30;5.30;;;4.80;;
18653;SDS011;9456;47.824;16.228;2023-09-12T11:31:59;6.70;;;4.50;;
18653;SDS011;9456;47.824;16.228;2023-09-12T11:34:28;5.30;;;4.80;;
18653;SDS011;9456;47.824;16.228;2023-09-12T11:36:57;5.40;;;4.30;;
18653;SDS011;9456;47.824;16.228;2023-09-12T11:39:28;4.70;;;4.30;;
18653;SDS011;9456;47.824;16.228;2023-09-12T11:41:57;6.15;;;5.00;;
18653;SDS011;9456;47.824;16.228;2023-09-12T11:44:29;5.70;;;5.07;;
18653;SDS011;9456;47.824;16.228;2023-09-12T11:47:00;6.30;;;5.30;;
18653;SDS011;9456;47.824;16.228;2023-09-12T11:49:35;6.33;;;5.40;;
18653;SDS011;9456;47.824;16.228;2023-09-12T11:52:07;5.93;;;5.30;;
18653;SDS011;9456;47.824;16.228;2023-09-12T11:54:36;5.23;;;4.80;;
18653;SDS011;9456;47.824;16.228;2023-09-12T11:57:05;7.80;;;4.70;;
18653;SDS011;9456;47.824;16.228;2023-09-12T11:59:37;6.50;;;4.60;;
18653;SDS011;9456;47.824;16.228;2023-09-12T12:02:07;5.95;;;4.80;;
18653;SDS011;9456;47.824;16.228;2023-09-12T12:04:35;6.37;;;5.30;;
18653;SDS011;9456;47.824;16.228;2023-09-12T12:07:05;5.83;;;4.97;;
18653;SDS011;9456;47.824;16.228;2023-09-12T12:09:33;10.10;;;4.70;;
18653;SDS011;9456;47.824;16.228;2023-09-12T12:12:10;5.30;;;4.77;;
18653;SDS011;9456;47.824;16.228;2023-09-12T12:14:39;7.30;;;4.83;;
18653;SDS011;9456;47.824;16.228;2023-09-12T12:17:09;8.30;;;4.77;;
18653;SDS011;9456;47.824;16.228;2023-09-12T12:19:37;5.20;;;4.80;;
18653;SDS011;9456;47.824;16.228;2023-09-12T12:22:06;10.20;;;4.73;;
18653;SDS011;9456;47.824;16.228;2023-09-12T12:24:38;5.50;;;4.97;;
18653;SDS011;9456;47.824;16.228;2023-09-12T12:27:07;7.77;;;4.97;;
18653;SDS011;9456;47.824;16.228;2023-09-12T12:29:36;4.97;;;4.57;;
18653;SDS011;9456;47.824;16.228;2023-09-12T12:32:06;9.03;;;4.70;;
18653;SDS011;9456;47.824;16.228;2023-09-12T12:34:36;6.17;;;4.30;;
18653;SDS011;9456;47.824;16.228;2023-09-12T12:37:05;6.17;;;5.03;;
18653;SDS011;9456;47.824;16.228;2023-09-12T12:39:34;4.90;;;4.17;;
18653;SDS011;9456;47.824;16.228;2023-09-12T12:42:09;6.10;;;5.03;;
18653;SDS011;9456;47.824;16.228;2023-09-12T12:44:38;5.60;;;4.40;;
18653;SDS011;9456;47.824;16.228;2023-09-12T12:47:14;5.00;;;4.50;;
18653;SDS011;9456;47.824;16.228;2023-09-12T12:49:44;6.10;;;4.30;;
18653;SDS011;9456;47.824;16.228;2023-09-12T12:52:13;5.20;;;4.43;;
18653;SDS011;9456;47.824;16.228;2023-09-12T12:54:42;4.77;;;4.10;;
18653;SDS011;9456;47.824;16.228;2023-09-12T12:57:11;6.70;;;4.63;;
18653;SDS011;9456;47.824;16.228;2023-09-12T12:59:45;5.73;;;4.23;;
18653;SDS011;9456;47.824;16.228;2023-09-12T13:02:14;4.73;;;4.30;;
18653;SDS011;9456;47.824;16.228;2023-09-12T13:04:43;7.90;;;4.70;;
18653;SDS011;9456;47.824;16.228;2023-09-12T13:07:12;4.03;;;3.73;;
18653;SDS011;9456;47.824;16.228;2023-09-12T13:09:41;6.23;;;4.47;;
18653;SDS011;9456;47.824;16.228;2023-09-12T13:12:10;4.27;;;3.97;;
18653;SDS011;9456;47.824;16.228;2023-09-12T13:14:38;5.87;;;3.83;;
18653;SDS011;9456;47.824;16.228;2023-09-12T13:17:07;8.03;;;4.00;;
18653;SDS011;9456;47.824;16.228;2023-09-12T13:19:36;5.07;;;4.20;;
18653;SDS011;9456;47.824;16.228;2023-09-12T13:22:05;4.33;;;3.83;;
18653;SDS011;9456;47.824;16.228;2023-09-12T13:24:34;6.77;;;4.30;;
18653;SDS011;9456;47.824;16.228;2023-09-12T13:27:03;4.63;;;3.90;;
18653;SDS011;9456;47.824;16.228;2023-09-12T13:29:33;5.53;;;4.10;;
18653;SDS011;9456;47.824;16.228;2023-09-12T13:32:02;4.13;;;3.83;;
18653;SDS011;9456;47.824;16.228;2023-09-12T13:34:31;5.17;;;4.47;;
18653;SDS011;9456;47.824;16.228;2023-09-12T13:37:00;5.03;;;3.90;;
18653;SDS011;9456;47.824;16.228;2023-09-12T13:39:29;6.63;;;4.20;;
18653;SDS011;9456;47.824;16.228;2023-09-12T13:41:58;7.40;;;4.30;;
18653;SDS011;9456;47.824;16.228;2023-09-12T13:44:26;6.00;;;4.30;;
18653;SDS011;9456;47.824;16.228;2023-09-12T13:46:55;4.20;;;3.90;;
18653;SDS011;9456;47.824;16.228;2023-09-12T13:49:25;4.97;;;3.77;;
18653;SDS011;9456;47.824;16.228;2023-09-12T13:51:54;5.80;;;3.90;;
18653;SDS011;9456;47.824;16.228;2023-09-12T13:54:23;4.47;;;3.80;;
18653;SDS011;9456;47.824;16.228;2023-09-12T13:56:52;6.47;;;3.57;;
18653;SDS011;9456;47.824;16.228;2023-09-12T13:59:21;6.00;;;3.73;;
18653;SDS011;9456;47.824;16.228;2023-09-12T14:01:50;4.07;;;3.57;;
18653;SDS011;9456;47.824;16.228;2023-09-12T14:04:19;3.17;;;2.97;;
18653;SDS011;9456;47.824;16.228;2023-09-12T14:06:48;5.13;;;3.40;;
18653;SDS011;9456;47.824;16.228;2023-09-12T14:09:17;5.27;;;3.40;;
18653;SDS011;9456;47.824;16.228;2023-09-12T14:11:46;4.80;;;3.53;;
18653;SDS011;9456;47.824;16.228;2023-09-12T14:14:15;6.40;;;3.50;;
18653;SDS011;9456;47.824;16.228;2023-09-12T14:16:44;4.00;;;3.60;;
18653;SDS011;9456;47.824;16.228;2023-09-12T14:19:13;6.67;;;3.80;;
18653;SDS011;9456;47.824;16.228;2023-09-12T14:21:42;4.03;;;3.40;;
18653;SDS011;9456;47.824;16.228;2023-09-12T14:24:11;5.60;;;3.60;;
18653;SDS011;9456;47.824;16.228;2023-09-12T14:26:40;4.00;;;3.57;;
18653;SDS011;9456;47.824;16.228;2023-09-12T14:29:09;5.27;;;3.10;;
18653;SDS011;9456;47.824;16.228;2023-09-12T14:31:38;6.30;;;4.03;;
18653;SDS011;9456;47.824;16.228;2023-09-12T14:34:07;5.17;;;4.13;;
18653;SDS011;9456;47.824;16.228;2023-09-12T14:36:36;4.03;;;3.33;;
18653;SDS011;9456;47.824;16.228;2023-09-12T14:39:05;3.83;;;3.53;;
18653;SDS011;9456;47.824;16.228;2023-09-12T14:41:34;6.83;;;3.70;;
18653;SDS011;9456;47.824;16.228;2023-09-12T14:44:03;5.83;;;4.10;;
18653;SDS011;9456;47.824;16.228;2023-09-12T14:46:32;6.30;;;3.50;;
18653;SDS011;9456;47.824;16.228;2023-09-12T14:49:01;4.57;;;3.50;;
18653;SDS011;9456;47.824;16.228;2023-09-12T14:51:39;4.03;;;3.57;;
18653;SDS011;9456;47.824;16.228;2023-09-12T14:54:08;5.23;;;3.43;;
18653;SDS011;9456;47.824;16.228;2023-09-12T14:56:37;6.00;;;3.80;;
18653;SDS011;9456;47.824;16.228;2023-09-12T14:59:06;10.60;;;3.80;;
18653;SDS011;9456;47.824;16.228;2023-09-12T15:01:36;3.70;;;3.40;;
18653;SDS011;9456;47.824;16.228;2023-09-12T15:04:04;8.83;;;4.03;;
18653;SDS011;9456;47.824;16.228;2023-09-12T15:06:33;5.23;;;3.77;;
18653;SDS011;9456;47.824;16.228;2023-09-12T15:09:02;4.93;;;4.20;;
18653;SDS011;9456;47.824;16.228;2023-09-12T15:11:32;4.80;;;4.03;;
18653;SDS011;9456;47.824;16.228;2023-09-12T15:14:01;5.23;;;3.77;;
18653;SDS011;9456;47.824;16.228;2023-09-12T15:16:30;4.07;;;3.67;;
18653;SDS011;9456;47.824;16.228;2023-09-12T15:18:59;4.57;;;3.50;;
18653;SDS011;9456;47.824;16.228;2023-09-12T15:21:28;4.03;;;3.60;;
18653;SDS011;9456;47.824;16.228;2023-09-12T15:23:56;4.33;;;3.90;;
18653;SDS011;9456;47.824;16.228;2023-09-12T15:26:25;6.07;;;3.80;;
18653;SDS011;9456;47.824;16.228;2023-09-12T15:28:54;5.37;;;3.70;;
18653;SDS011;9456;47.824;16.228;2023-09-12T15:34:11;4.40;;;4.00;;
18653;SDS011;9456;47.824;16.228;2023-09-12T15:36:41;5.43;;;3.60;;
18653;SDS011;9456;47.824;16.228;2023-09-12T15:39:09;3.90;;;3.60;;
18653;SDS011;9456;47.824;16.228;2023-09-12T15:41:38;6.47;;;4.03;;